Shemah Yisrael!
Hear, O Israel: the LORD our God, the LORD is one.
You shall love the LORD your God with all your heart and with all your soul and with all your might.
(Deuteronomy 6:4-5)
Houston / Ellington, TX, United States (KEFD) 29-36N 095-10W
Apr 19, 2019 - 12:50 PM EDT / 2019.04.19 1650 UTC
Wind: from the NW (320 degrees) at 22 MPH (19 KT):0
Visibility: 10 mile(s):0
Sky conditions: mostly clear
Temperature: 69 F (21 C)
Dew Point: 42 F (6 C)
Relative Humidity: 37%
Pressure (altimeter): 30.04 in. Hg (1017 hPa)
ob: KEFD 191650Z 32019KT 10SM FEW050 21/06 A3004
cycle: 17
w e b m a s t e r   a t   s h e m a h   d o t   n e t